Osceola, Indiana
Current Conditions -  °F | °C
As of 12:50 PM on Friday 24 Oct 2014 (Local Time) from KEKM Reporting Station
Broken Clouds Broken Clouds  
Wind Chill: 15°   Ceiling: 4000
Heat Index: 15°   Visibility: 10mi
Dew Point:   Wind: 6mph
Humidity: 63%   Direction: 140°SE
Pressure: 30.06"   Gusts: NA
Location:  41.67°N, 86.08°W
Report Text: KEKM 241650Z 14005KT 10SM BKN040 15/08 A3006
Loading
Personal Weather Stations






























Interactive Weather Map
Tropical Storm Tracking
New forecast layout! Learn more

10-Day Weather Forecast

Advertisements
Track Severe Weather on mobile